Slide Mountain Weather observations

Data are for 10 minute period ending at time listed.
 Day   Time   Solar   Ave.   Ave.  Ave.  Vector  Max.    Baro.  
  of    of     Rad.   Air    Rel.  Wind   Wind   Wind   Press.  
Year   Day            Temp.  Hum.  Speed  Dir.   Gust           
2014   (PST)  Kw/m2    F      %     mph   deg.    mph     mb.   
-----------------------------------------------------------------
 272   13:30   0.61   47.4    56    5.2   356     12.4    714.8 
 272   13:40   0.60   47.2    60    4.6   330     12.4    714.8 
 272   13:50   0.58   47.1    61    4.5   340     11.0    714.8 
 272   14:00   0.56   47.2    62    4.0   323      8.1    714.8 
 272   14:10   0.55   47.7    60    2.6     4      7.7    714.8 
 272   14:20   0.53   48.7    58    0.4   305      3.4    714.8 
 272   14:30   0.51   48.5    60    0.1    60      1.1    714.8 
 272   14:40   0.48   49.2    56    1.5   345      4.5    714.8 
 272   14:50   0.46   49.0    54    3.4   327      7.3    714.9 
 272   15:00   0.44   49.9    54    1.0     9      4.7    714.9 
 272   15:10   0.42   49.8    53    1.6   360      4.3    714.9 
 272   15:20   0.39   49.4    54    0.3    12      2.6    715.0 
 272   15:30   0.37   49.9    50    2.0   322      7.7    715.0 
 272   15:40   0.34   49.1    50    3.0   350     11.2    715.0 
 272   15:50   0.32   48.6    50    3.6   318      6.7    714.9 
 272   16:00   0.29   48.4    53    2.0    53      6.7    714.9 
 272   16:10   0.26   47.9    58    0.1   352      1.2    714.9 
 272   16:20   0.23   48.8    58    2.3   203      6.1    714.9 
 272   16:30   0.21   49.1    57    1.2   234      6.0    714.9 
 272   16:40   0.18   49.4    56    1.8   238      5.8    714.9 
 272   16:50   0.16   49.1    57    0.8   243      4.5    714.9 
 272   17:00   0.13   49.3    56    1.2   272      3.6    714.9 
 272   17:10   0.10   48.5    56    0.3   297      1.4    714.9 
 272   17:20   0.06   48.1    61    0.8   266      3.3    714.9 
 272   17:30   0.02   45.6    71    4.9   275      7.5    714.9 
 272   17:40   0.01   43.8    74    8.4   277     11.6    714.8 
 272   17:50   0.00   43.4    70    8.8   286     11.8    714.8 
 272   18:00   0.00   42.7    73    5.7   299      8.6    714.7 
 272   18:10   0.00   42.5    71    7.2   312     10.0    714.6 
 272   18:20   0.00   42.3    74    5.9   301      9.6    714.5 
 272   18:30   0.00   42.2    77    5.7   310      8.8    714.6 
 272   18:40   0.00   42.0    79    7.0   322      9.7    714.7 
 272   18:50   0.00   42.2    80    6.9   325     10.7    714.7 
 272   19:00   0.00   42.1    80    5.7   323     10.7    714.8 
 272   19:10   0.00   41.8    81    5.5   317      8.2    714.8 
 272   19:20   0.00   41.6    83    2.6   322      4.5    714.8 
 272   19:30   0.00   41.7    80    0.3   324      2.1    714.9 
 272   19:40   0.00   42.3    75    0.5   286      3.7    714.9 
 272   19:50   0.00   42.1    76    0.9   277      4.4    714.9 
 272   20:00   0.00   42.6    73    0.0     0      0.0    714.8 
 272   20:10   0.00   42.4    74    0.0   278      0.1    715.0 
 272   20:20   0.00   41.7    81    3.6   262      6.7    715.0 
 272   20:30   0.00   41.7    80    5.9   269      7.4    715.1 
 272   20:40   0.00   41.7    80    6.5   271      8.5    715.0 
 272   20:50   0.00   41.7    77    6.2   279      9.4    715.0 
 272   21:00   0.00   41.8    77    8.1   270     10.9    714.9 
 272   21:10   0.00   41.5    78   10.9   270     13.9    714.9 
 272   21:20   0.00   41.1    82   11.6   270     14.4    715.0 
 272   21:30   0.00   41.2    81   11.9   267     15.0    714.9 
 272   21:40   0.00   41.5    81   13.7   266     17.9    714.9 
 272   21:50   0.00   41.5    81   13.3   266     16.4    714.9 
 272   22:00   0.00   41.4    82   12.6   268     14.6    714.9 
 272   22:10   0.00   41.2    83   12.5   276     15.1    714.9 
 272   22:20   0.00   40.8    86   10.2   281     13.5    714.9 
 272   22:30   0.00   40.0    91   11.4   275     16.0    714.9 
 272   22:40   0.00   39.7    91   14.2   267     17.8    714.8 
 272   22:50   0.00   39.3    90   13.7   269     16.9    714.6 
 272   23:00   0.00   39.1    89   16.7   278     19.9    714.4 
 272   23:10   0.00   39.2    86   17.7   281     22.7    714.3 
 272   23:20   0.00   38.9    87   18.8   271     23.6    714.2 
 272   23:30   0.00   38.7    86   19.8   270     23.2    714.1 
 272   23:40   0.00   38.6    86   21.3   270     24.6    714.1 
 272   23:50   0.00   38.4    86   19.5   273     24.4    714.0 
 273    0:00   0.00   38.7    82   18.0   279     21.7    714.0 
 273    0:10   0.00   39.4    78   19.8   274     26.1    713.9 
 273    0:20   0.00   39.7    75   23.2   265     30.2    713.7 
 273    0:30   0.00   40.1    67   27.4   265     34.3    713.5 
 273    0:40   0.00   40.2    61   27.1   269     31.2    713.5 
 273    0:50   0.00   40.3    56   28.1   268     32.5    713.4 
 273    1:00   0.00   40.1    55   26.3   273     31.4    713.4 
 273    1:10   0.00   40.0    56   26.8   270     31.4    713.3 
 273    1:20   0.00   39.6    56   26.0   268     33.2    713.3 
 273    1:30   0.00   39.6    54   22.6   275     28.8    713.2 
 273    1:40   0.00   40.2    58   15.8   283     26.8    713.4 
 273    1:50   0.00   40.3    60    8.3   296     19.3    713.4 
 273    2:00   0.00   40.1    61    8.8   300     18.3    713.3 
 273    2:10   0.00   39.8    60    8.8   310     15.4    713.3 
 273    2:20   0.00   39.6    61   10.4   294     19.8    713.1 
 273    2:30   0.00   39.5    63    9.4   299     19.3    713.1 
 273    2:40   0.00   39.4    66    8.3   309     14.9    713.1 
 273    2:50   0.00   39.4    65   10.6   296     19.3    712.9 
 273    3:00   0.00   39.4    63   11.8   296     22.4    712.8 
 273    3:10   0.00   39.4    64   14.7   289     25.6    712.8 
 273    3:20   0.00   39.2    65   10.6   303     21.1    712.8 
 273    3:30   0.00   38.9    67    8.7   308     21.2    712.8 
 273    3:40   0.00   38.7    69    9.0   298     16.4    712.8 
 273    3:50   0.00   38.7    69    8.4   273     14.0    712.9 
 273    4:00   0.00   38.6    70    9.7   288     18.1    712.8 
 273    4:10   0.00   38.4    71    9.6   278     17.4    712.8 
 273    4:20   0.00   38.6    71    8.0   277     15.7    712.9 
 273    4:30   0.00   38.5    73    7.7   284     19.4    712.9 
 273    4:40   0.00   38.3    74    3.1   346     14.9    713.0 
 273    4:50   0.00   38.0    76    3.8   296     10.7    713.0 
 273    5:00   0.00   38.0    74    4.6   295     11.9    713.0 
 273    5:10   0.00   37.6    76    3.5   275      8.7    712.9 
 273    5:20   0.00   37.2    77    9.4   271     15.6    712.8 
 273    5:30   0.00   37.5    74   15.3   269     23.9    712.7 
 273    5:40   0.00   37.6    71   14.2   271     22.9    712.7 
 273    5:50   0.00   37.3    69   10.1   266     17.5    712.8 
 273    6:00   0.00   37.2    71    7.3   257     13.2    712.9 
 273    6:10   0.01   37.5    72    6.2   265     10.3    712.9 
 273    6:20   0.03   37.4    74    6.7   261     11.2    713.0 
 273    6:30   0.05   37.5    77    8.2   250     14.0    713.0 
 273    6:40   0.09   37.5    79   10.7   257     17.9    713.1 
 273    6:50   0.12   37.9    75    9.9   252     14.4    713.2 
 273    7:00   0.14   37.8    80   10.1   253     13.9    713.2 
 273    7:10   0.16   37.8    82    9.8   251     13.9    713.3 
 273    7:20   0.19   38.3    80    9.2   253     17.3    713.3 
 273    7:30   0.23   39.1    80    7.0   248     11.8    713.4 
 273    7:40   0.26   39.6    81    6.4   254     12.4    713.5 
 273    7:50   0.28   40.2    81    3.8   259      9.9    713.5 
 273    8:00   0.17   39.5    83    6.1   259     12.5    713.5 
 273    8:10   0.23   39.6    84    6.2   258     11.3    713.4 
 273    8:20   0.26   40.1    81    9.8   258     17.0    713.3 
 273    8:30   0.28   40.6    80    5.6   263     10.9    713.4 
 273    8:40   0.37   41.8    76    6.5   251     12.1    713.4 
 273    8:50   0.30   42.2    77    4.3   228      9.2    713.5 
 273    9:00   0.32   41.5    78    6.0   247     12.6    713.5 
 273    9:10   0.33   41.1    78    9.4   246     18.8    713.5 
 273    9:20   0.24   40.4    81    8.2   242     12.6    713.5 
 273    9:30   0.29   40.7    81    6.6   227     12.7    713.5 
 273    9:40   0.48   41.4    79    7.2   232     12.4    713.5 
 273    9:50   0.54   42.9    76    8.2   243     13.2    713.5 
 273   10:00   0.59   43.1    75    9.4   241     16.4    713.5 
 273   10:10   0.60   44.4    74    5.0   234     11.6    713.5 
 273   10:20   0.67   45.2    71    6.8   233     10.4    713.5 
 273   10:30   0.67   45.4    71    7.7   237     13.5    713.4 
 273   10:40   0.43   44.6    71    5.7   236     11.2    713.4 
 273   10:50   0.55   44.9    69    6.0   238     12.2    713.4 
 273   11:00   0.59   45.4    68    5.1   246     14.6    713.4 
 273   11:10   0.63   46.1    67    4.2   239     11.7    713.4 
 273   11:20   0.70   47.9    63    2.3   195      6.7    713.4 
 273   11:30   0.68   48.9    60    2.5   206      7.2    713.4 
 273   11:40   0.58   48.9    59    3.1   227      9.7    713.4 
 273   11:50   0.46   47.8    60    3.1   209      9.4    713.4 
 273   12:00   0.75   47.8    59    5.6   196     10.4    713.4 
 273   12:10   0.43   49.0    61    1.7   199      5.6    713.3 
 273   12:20   0.76   48.8    61    3.1   213      9.4    713.3 
 273   12:30   0.49   49.2    60    2.5   230      6.9    713.3 
 273   12:40   0.77   49.7    60    4.1   216      9.1    713.2 
 273   12:50   0.81   50.9    62    0.8   120      4.4    713.1 
 273   13:00   0.45   50.1    56    5.4   262     11.1    713.1 
 273   13:10   0.45   47.7    56    9.6   263     18.5    713.0 
 273   13:20   0.63   47.9    59    8.7   252     15.0    712.9 

Return to Slide Mountain graphs page.


Western Regional Climate Center,wrcc@dri.edu